Time;durP1;ratioP1;P1;durP2;ratioP2;P2;SDS_P1;SDS_P2;PMS_P1;PMS_P2;Temp;Humidity;BMP_temperature;BMP_pressure;BME280_temperature;BME280_humidity;BME280_pressure;Samples;Min_cycle;Max_cycle;Signal;HPM_P1;HPM_P2
2021/11/17 02:28:35;;;;;;;13.25;5.95;;;;;;;;;;5136573;27;20129;-60
2021/11/17 02:31:23;;;;;;;10.52;5.70;;;;;;;;;;5131995;27;20025;-61
2021/11/17 02:34:09;;;;;;;11.05;6.43;;;;;;;;;;5143254;27;20035;-57
2021/11/17 02:37:09;;;;;;;10.75;5.93;;;;;;;;;;5149796;27;20022;-62
2021/11/17 02:39:57;;;;;;;11.73;5.15;;;;;;;;;;5150823;27;20027;-67
2021/11/17 02:42:42;;;;;;;10.80;5.85;;;;;;;;;;5149512;27;20034;-65
2021/11/17 02:45:28;;;;;;;10.65;5.95;;;;;;;;;;5137157;27;20575;-66
2021/11/17 02:48:13;;;;;;;10.50;5.88;;;;;;;;;;5145201;27;20281;-66
2021/11/17 02:51:01;;;;;;;9.85;5.70;;;;;;;;;;5149381;27;20022;-67
2021/11/17 02:53:56;;;;;;;8.90;5.55;;;;;;;;;;5149861;27;20054;-67
2021/11/17 02:56:52;;;;;;;10.07;5.90;;;;;;;;;;5130023;27;20021;-59
2021/11/17 02:59:59;;;;;;;9.25;5.40;;;;;;;;;;5141399;27;20782;-58
2021/11/17 03:03:00;;;;;;;11.77;6.50;;;;;;;;;;5149180;27;20151;-57
2021/11/17 03:05:51;;;;;;;11.65;6.88;;;;;;;;;;5134746;27;20055;-58
2021/11/17 03:08:55;;;;;;;12.40;6.63;;;;;;;;;;5148686;27;20038;-58
2021/11/17 03:11:48;;;;;;;8.30;5.57;;;;;;;;;;5150302;27;20110;-57
2021/11/17 03:14:42;;;;;;;10.25;5.85;;;;;;;;;;5141187;27;20031;-59
2021/11/17 03:17:34;;;;;;;12.30;7.15;;;;;;;;;;5117854;27;20023;-58
2021/11/17 03:20:22;;;;;;;12.45;7.72;;;;;;;;;;5139909;27;20023;-61
2021/11/17 03:23:19;;;;;;;10.60;6.43;;;;;;;;;;5147435;27;20422;-61
2021/11/17 03:26:07;;;;;;;11.00;6.28;;;;;;;;;;5149430;27;20015;-59
2021/11/17 03:29:02;;;;;;;9.52;6.18;;;;;;;;;;5148432;27;20118;-59
2021/11/17 03:32:12;;;;;;;10.43;6.53;;;;;;;;;;5149668;27;20659;-60
2021/11/17 03:35:24;;;;;;;11.00;6.50;;;;;;;;;;5149115;27;20033;-60
2021/11/17 03:38:09;;;;;;;12.50;7.78;;;;;;;;;;5148390;27;20110;-61
2021/11/17 03:40:54;;;;;;;11.45;6.85;;;;;;;;;;5149901;27;20106;-60
2021/11/17 03:43:58;;;;;;;11.77;7.18;;;;;;;;;;5148690;27;20031;-58
2021/11/17 03:46:56;;;;;;;11.40;6.38;;;;;;;;;;5134448;27;20059;-58
2021/11/17 03:49:51;;;;;;;11.50;6.47;;;;;;;;;;5147692;27;20094;-58
2021/11/17 03:52:40;;;;;;;12.15;7.18;;;;;;;;;;5149756;27;20518;-62
2021/11/17 03:55:35;;;;;;;12.52;6.05;;;;;;;;;;5148333;27;20117;-62
2021/11/17 03:58:29;;;;;;;12.70;6.93;;;;;;;;;;5149845;27;20079;-64
2021/11/17 04:01:21;;;;;;;11.30;7.25;;;;;;;;;;5154379;27;20126;-60
2021/11/17 04:04:06;;;;;;;11.95;7.13;;;;;;;;;;5148350;27;20481;-62
2021/11/17 04:06:57;;;;;;;12.05;7.72;;;;;;;;;;5148437;27;20027;-61
2021/11/17 04:09:50;;;;;;;14.73;8.70;;;;;;;;;;5148264;27;20045;-60
2021/11/17 04:12:47;;;;;;;11.40;6.90;;;;;;;;;;5135058;27;20023;-60
2021/11/17 04:15:39;;;;;;;14.07;6.78;;;;;;;;;;5144043;27;20073;-61
2021/11/17 04:18:24;;;;;;;9.75;6.63;;;;;;;;;;5149331;27;20065;-63
2021/11/17 04:21:18;;;;;;;12.55;6.68;;;;;;;;;;5144440;27;20033;-62
2021/11/17 04:24:06;;;;;;;10.95;7.53;;;;;;;;;;5141747;27;20430;-62
2021/11/17 04:27:04;;;;;;;12.35;7.13;;;;;;;;;;5147162;27;20026;-63
2021/11/17 04:30:18;;;;;;;12.50;7.20;;;;;;;;;;5147879;27;20110;-73
2021/11/17 04:33:14;;;;;;;10.82;6.90;;;;;;;;;;5145484;27;20551;-61
2021/11/17 04:36:26;;;;;;;14.00;8.00;;;;;;;;;;5136171;27;20404;-60
2021/11/17 04:39:14;;;;;;;12.05;7.47;;;;;;;;;;5131723;27;20027;-62
2021/11/17 04:42:05;;;;;;;12.68;7.95;;;;;;;;;;5151832;27;20045;-60
2021/11/17 04:45:04;;;;;;;12.48;7.57;;;;;;;;;;5153191;27;20023;-60
2021/11/17 04:47:52;;;;;;;13.07;7.03;;;;;;;;;;5152522;27;20030;-61
2021/11/17 04:50:57;;;;;;;14.45;8.27;;;;;;;;;;5137475;27;20058;-62
2021/11/17 04:53:58;;;;;;;10.52;6.32;;;;;;;;;;5152990;27;20027;-61
2021/11/17 04:57:02;;;;;;;13.82;7.43;;;;;;;;;;5146469;27;20019;-63
2021/11/17 04:59:54;;;;;;;12.52;6.63;;;;;;;;;;5145148;27;20079;-61
2021/11/17 05:02:49;;;;;;;12.13;6.85;;;;;;;;;;5150307;27;20022;-60
2021/11/17 05:05:40;;;;;;;10.43;7.10;;;;;;;;;;5152221;27;20545;-66
2021/11/17 05:08:28;;;;;;;12.68;6.72;;;;;;;;;;5151586;27;20023;-62
2021/11/17 05:11:29;;;;;;;10.50;6.72;;;;;;;;;;5141101;27;20046;-62
2021/11/17 05:14:23;;;;;;;9.30;5.50;;;;;;;;;;5152010;27;20434;-63
2021/11/17 05:17:15;;;;;;;14.30;7.57;;;;;;;;;;5136660;27;20027;-67
2021/11/17 05:20:09;;;;;;;12.65;7.60;;;;;;;;;;5131121;27;20106;-63
2021/11/17 05:23:00;;;;;;;32.97;21.85;;;;;;;;;;5148090;27;20026;-67
2021/11/17 05:25:46;;;;;;;12.48;7.15;;;;;;;;;;5151684;27;20140;-62
2021/11/17 05:28:40;;;;;;;8.45;5.47;;;;;;;;;;5144167;27;20031;-60
2021/11/17 05:31:28;;;;;;;9.82;5.95;;;;;;;;;;5137563;27;20033;-58
2021/11/17 05:34:17;;;;;;;13.38;6.10;;;;;;;;;;5150842;27;20035;-58
2021/11/17 05:37:11;;;;;;;10.55;4.85;;;;;;;;;;5152267;27;20027;-60
2021/11/17 05:39:57;;;;;;;13.30;7.07;;;;;;;;;;5148961;27;20026;-60
2021/11/17 05:42:51;;;;;;;12.60;6.47;;;;;;;;;;5150252;27;20467;-66
2021/11/17 05:45:55;;;;;;;12.98;7.22;;;;;;;;;;5117341;27;20028;-63
2021/11/17 05:48:49;;;;;;;11.60;6.65;;;;;;;;;;5149063;27;20039;-60
2021/11/17 05:51:34;;;;;;;8.75;5.53;;;;;;;;;;5137094;27;20030;-61
2021/11/17 05:54:38;;;;;;;10.40;6.55;;;;;;;;;;5150297;27;20038;-60
2021/11/17 05:57:30;;;;;;;10.85;7.10;;;;;;;;;;5149879;27;20030;-60
2021/11/17 06:00:15;;;;;;;16.65;10.68;;;;;;;;;;5150225;27;20091;-59
2021/11/17 06:03:06;;;;;;;13.23;7.22;;;;;;;;;;5151938;27;20058;-61
2021/11/17 06:05:52;;;;;;;9.65;5.90;;;;;;;;;;5140780;27;20110;-62
2021/11/17 06:08:37;;;;;;;12.50;6.78;;;;;;;;;;5135211;27;20488;-61
2021/11/17 06:11:24;;;;;;;10.68;6.30;;;;;;;;;;5141170;27;20027;-62
2021/11/17 06:14:13;;;;;;;9.45;5.22;;;;;;;;;;5130528;27;20054;-63
2021/11/17 06:17:03;;;;;;;10.95;6.30;;;;;;;;;;5151099;27;20026;-65
2021/11/17 06:19:50;;;;;;;10.30;6.55;;;;;;;;;;5138788;27;20027;-59
2021/11/17 06:22:36;;;;;;;10.30;5.78;;;;;;;;;;5151435;27;20025;-57
2021/11/17 06:25:21;;;;;;;9.23;5.15;;;;;;;;;;5149114;27;20422;-59
2021/11/17 06:28:08;;;;;;;8.35;4.65;;;;;;;;;;5150741;27;20103;-58
2021/11/17 06:30:55;;;;;;;8.98;5.40;;;;;;;;;;5137311;27;20361;-58
2021/11/17 06:33:41;;;;;;;10.73;5.82;;;;;;;;;;5137678;27;20446;-60
2021/11/17 06:36:26;;;;;;;9.00;5.20;;;;;;;;;;5149498;27;20462;-59
2021/11/17 06:39:11;;;;;;;10.50;6.40;;;;;;;;;;5151038;27;20027;-60
2021/11/17 06:41:57;;;;;;;12.20;5.80;;;;;;;;;;5149570;27;20122;-59
2021/11/17 06:44:43;;;;;;;9.95;5.90;;;;;;;;;;5149646;27;20485;-58
2021/11/17 06:47:28;;;;;;;7.68;4.72;;;;;;;;;;5139681;27;20105;-58
2021/11/17 06:50:14;;;;;;;8.85;5.32;;;;;;;;;;5149796;27;20087;-59
2021/11/17 06:53:00;;;;;;;13.23;5.55;;;;;;;;;;5143409;27;20472;-58
2021/11/17 06:55:45;;;;;;;9.63;4.88;;;;;;;;;;5134522;27;20019;-63
2021/11/17 06:58:30;;;;;;;8.63;4.80;;;;;;;;;;5149487;27;20444;-73
2021/11/17 07:01:16;;;;;;;9.55;5.28;;;;;;;;;;5138724;27;20827;-73
2021/11/17 07:04:01;;;;;;;9.32;5.28;;;;;;;;;;5150385;27;20046;-71
2021/11/17 07:06:46;;;;;;;15.10;6.60;;;;;;;;;;5144638;27;20029;-73
2021/11/17 07:09:32;;;;;;;11.90;6.05;;;;;;;;;;5138281;27;20546;-71
2021/11/17 07:12:17;;;;;;;9.90;4.93;;;;;;;;;;5131575;27;20109;-75
2021/11/17 07:15:03;;;;;;;10.45;4.80;;;;;;;;;;5150208;27;20029;-58
2021/11/17 07:17:48;;;;;;;14.82;6.07;;;;;;;;;;5142508;27;20019;-71
2021/11/17 07:20:34;;;;;;;12.27;6.43;;;;;;;;;;5123363;27;20033;-73
2021/11/17 07:23:20;;;;;;;10.07;5.63;;;;;;;;;;5145909;27;20023;-71
2021/11/17 07:26:05;;;;;;;9.40;5.60;;;;;;;;;;5149014;27;20218;-71
2021/11/17 07:28:51;;;;;;;9.13;4.85;;;;;;;;;;5148346;27;20027;-73
2021/11/17 07:31:36;;;;;;;9.68;5.72;;;;;;;;;;5149777;27;20031;-72
2021/11/17 07:34:21;;;;;;;11.35;6.72;;;;;;;;;;5143014;27;20031;-60
2021/11/17 07:37:06;;;;;;;9.00;5.30;;;;;;;;;;5134147;27;20042;-66
2021/11/17 07:39:52;;;;;;;10.15;5.97;;;;;;;;;;5149754;27;20030;-66
2021/11/17 07:42:37;;;;;;;9.95;4.70;;;;;;;;;;5148366;27;20026;-65
2021/11/17 07:45:23;;;;;;;9.95;5.97;;;;;;;;;;5148917;27;20018;-65
2021/11/17 07:48:09;;;;;;;14.63;6.05;;;;;;;;;;5148036;27;20054;-66
2021/11/17 07:50:55;;;;;;;11.82;5.95;;;;;;;;;;5150081;27;20045;-60
2021/11/17 07:53:41;;;;;;;11.02;6.38;;;;;;;;;;5148734;27;20018;-57
2021/11/17 07:56:26;;;;;;;8.82;4.97;;;;;;;;;;5142887;27;20033;-58
2021/11/17 07:59:14;;;;;;;14.32;6.20;;;;;;;;;;5140528;27;20075;-58
2021/11/17 08:02:01;;;;;;;10.20;5.47;;;;;;;;;;5148936;27;20022;-58
2021/11/17 08:04:46;;;;;;;9.55;5.38;;;;;;;;;;5148518;27;20055;-58
2021/11/17 08:07:32;;;;;;;12.10;6.00;;;;;;;;;;5149925;27;20023;-58
2021/11/17 08:10:21;;;;;;;9.68;5.53;;;;;;;;;;5149822;27;20035;-72
2021/11/17 08:13:07;;;;;;;16.35;6.45;;;;;;;;;;5153866;27;20026;-62
2021/11/17 08:15:52;;;;;;;8.82;5.45;;;;;;;;;;5153249;27;20473;-62
2021/11/17 08:18:42;;;;;;;10.95;5.93;;;;;;;;;;5152787;27;20019;-62
2021/11/17 08:21:27;;;;;;;12.00;5.78;;;;;;;;;;5152829;27;20050;-61
2021/11/17 08:24:12;;;;;;;9.50;5.70;;;;;;;;;;5136857;27;20022;-61
2021/11/17 08:26:58;;;;;;;9.50;5.05;;;;;;;;;;5141358;27;20507;-60
2021/11/17 08:29:43;;;;;;;12.38;5.70;;;;;;;;;;5151753;27;20063;-61
2021/11/17 08:32:28;;;;;;;10.50;5.30;;;;;;;;;;5153620;27;20023;-63
2021/11/17 08:35:16;;;;;;;9.00;5.25;;;;;;;;;;5152069;27;20517;-64
2021/11/17 08:38:03;;;;;;;8.88;4.80;;;;;;;;;;5153462;27;20014;-61
2021/11/17 08:40:53;;;;;;;8.70;4.65;;;;;;;;;;5152178;27;20027;-62
2021/11/17 08:43:40;;;;;;;9.93;5.78;;;;;;;;;;5138970;27;20053;-63
2021/11/17 08:46:26;;;;;;;23.83;5.80;;;;;;;;;;5147352;27;20045;-61
2021/11/17 08:49:12;;;;;;;9.48;5.00;;;;;;;;;;5153085;27;20054;-74
2021/11/17 08:51:58;;;;;;;9.40;4.95;;;;;;;;;;5138960;27;20132;-74
2021/11/17 08:54:44;;;;;;;10.45;4.53;;;;;;;;;;5153468;27;20018;-74
2021/11/17 08:57:29;;;;;;;9.50;4.30;;;;;;;;;;5140384;27;20022;-72
2021/11/17 09:00:16;;;;;;;7.90;4.55;;;;;;;;;;5152519;27;20026;-73
2021/11/17 09:03:03;;;;;;;8.05;3.95;;;;;;;;;;5130501;27;20031;-71
2021/11/17 09:05:50;;;;;;;9.30;4.70;;;;;;;;;;5147241;27;20026;-67
2021/11/17 09:08:35;;;;;;;8.57;4.63;;;;;;;;;;5152715;27;20075;-63
2021/11/17 09:11:21;;;;;;;6.00;3.50;;;;;;;;;;5151451;27;20109;-62
2021/11/17 09:14:06;;;;;;;4.57;2.83;;;;;;;;;;5152524;27;20011;-61
2021/11/17 09:16:52;;;;;;;3.78;2.50;;;;;;;;;;5151226;27;20015;-62
2021/11/17 09:19:37;;;;;;;4.10;2.40;;;;;;;;;;5136287;27;20099;-63
2021/11/17 09:22:22;;;;;;;5.75;2.58;;;;;;;;;;5143146;27;20083;-67
2021/11/17 09:25:08;;;;;;;3.63;2.25;;;;;;;;;;5143698;27;20057;-61
2021/11/17 09:27:55;;;;;;;3.53;2.13;;;;;;;;;;5151314;27;20042;-68
2021/11/17 09:30:41;;;;;;;7.80;2.50;;;;;;;;;;5152592;27;20438;-66
2021/11/17 09:33:26;;;;;;;3.60;2.40;;;;;;;;;;5150839;27;20087;-66
2021/11/17 09:36:12;;;;;;;3.30;2.15;;;;;;;;;;5152392;27;20022;-69
2021/11/17 09:38:58;;;;;;;3.40;1.92;;;;;;;;;;5151180;27;20029;-67
2021/11/17 09:41:45;;;;;;;3.47;2.15;;;;;;;;;;5152733;27;20118;-62
2021/11/17 09:44:36;;;;;;;4.18;1.90;;;;;;;;;;5144071;27;20027;-60
2021/11/17 09:47:23;;;;;;;3.35;2.13;;;;;;;;;;5124115;27;20399;-61
2021/11/17 09:50:18;;;;;;;3.50;2.20;;;;;;;;;;5151723;27;20035;-60
2021/11/17 09:53:06;;;;;;;5.35;2.25;;;;;;;;;;5129851;27;20066;-61
2021/11/17 09:55:57;;;;;;;3.97;2.15;;;;;;;;;;5147204;27;20059;-61
2021/11/17 09:58:45;;;;;;;5.07;2.10;;;;;;;;;;5150717;27;20061;-62
2021/11/17 10:01:39;;;;;;;2.88;1.98;;;;;;;;;;5144361;27;20029;-65
2021/11/17 10:04:25;;;;;;;4.72;1.85;;;;;;;;;;5150180;27;20027;-62
2021/11/17 10:13:32;;;;;;;5.22;2.05;;;;;;;;;;5150371;27;20500;-62
2021/11/17 10:16:17;;;;;;;4.13;2.80;;;;;;;;;;5151670;27;20022;-60
2021/11/17 10:19:13;;;;;;;5.35;2.42;;;;;;;;;;5150694;27;20014;-58
2021/11/17 10:22:01;;;;;;;5.95;2.63;;;;;;;;;;5140642;27;20061;-62
2021/11/17 10:24:46;;;;;;;5.18;2.10;;;;;;;;;;5149301;27;20029;-62
2021/11/17 10:27:32;;;;;;;4.68;2.25;;;;;;;;;;5151233;27;20031;-62
2021/11/17 10:30:21;;;;;;;3.70;2.30;;;;;;;;;;5149454;27;20087;-62
2021/11/17 10:33:12;;;;;;;3.55;2.10;;;;;;;;;;5150183;27;20015;-61
2021/11/17 10:36:00;;;;;;;3.65;2.00;;;;;;;;;;5150092;27;20042;-60
2021/11/17 10:38:52;;;;;;;5.45;2.20;;;;;;;;;;5151153;27;20025;-74
2021/11/17 10:41:47;;;;;;;3.20;2.30;;;;;;;;;;5148015;27;20023;-73
2021/11/17 10:44:52;;;;;;;3.50;2.08;;;;;;;;;;5148943;27;20109;-71
2021/11/17 10:47:38;;;;;;;2.85;1.83;;;;;;;;;;5151189;27;20045;-70
2021/11/17 10:50:26;;;;;;;2.40;1.77;;;;;;;;;;5147705;27;20041;-73
2021/11/17 10:53:15;;;;;;;2.95;1.95;;;;;;;;;;5150771;27;20034;-73
2021/11/17 10:56:06;;;;;;;2.80;2.00;;;;;;;;;;5149749;27;20023;-59
2021/11/17 10:58:53;;;;;;;2.17;1.60;;;;;;;;;;5151159;27;20025;-66
2021/11/17 11:01:40;;;;;;;2.58;1.48;;;;;;;;;;5149719;27;20038;-67
2021/11/17 11:04:29;;;;;;;2.00;1.50;;;;;;;;;;5149928;27;20090;-70
2021/11/17 11:07:25;;;;;;;1.92;1.40;;;;;;;;;;5135116;27;20385;-65
2021/11/17 11:10:29;;;;;;;2.38;1.70;;;;;;;;;;5136150;27;20390;-69
2021/11/17 11:13:20;;;;;;;4.43;1.65;;;;;;;;;;5141446;27;20022;-69
2021/11/17 11:16:11;;;;;;;2.35;1.58;;;;;;;;;;5145695;27;20362;-63
2021/11/17 11:19:17;;;;;;;1.83;1.52;;;;;;;;;;5150214;27;20061;-60
2021/11/17 11:22:06;;;;;;;3.40;1.30;;;;;;;;;;5149446;27;20038;-60
2021/11/17 11:24:53;;;;;;;2.40;1.50;;;;;;;;;;5149478;27;20044;-60
2021/11/17 11:27:38;;;;;;;2.38;1.40;;;;;;;;;;5148984;27;20014;-61
2021/11/17 11:30:34;;;;;;;1.70;1.30;;;;;;;;;;5138377;27;20037;-62
2021/11/17 11:33:24;;;;;;;2.80;1.33;;;;;;;;;;5148976;27;20026;-62
2021/11/17 11:36:09;;;;;;;5.85;1.48;;;;;;;;;;5150149;27;20030;-62
2021/11/17 11:38:57;;;;;;;3.08;1.48;;;;;;;;;;5123889;27;20034;-65
2021/11/17 11:42:01;;;;;;;1.77;1.13;;;;;;;;;;5134400;27;20019;-62
2021/11/17 11:44:47;;;;;;;2.55;1.23;;;;;;;;;;5148512;27;20515;-61
2021/11/17 11:47:38;;;;;;;1.45;1.13;;;;;;;;;;5148128;27;20010;-61
2021/11/17 11:50:29;;;;;;;1.77;1.27;;;;;;;;;;5149377;27;20046;-60
2021/11/17 11:53:24;;;;;;;2.10;1.30;;;;;;;;;;5148054;27;20507;-62
2021/11/17 11:56:20;;;;;;;2.88;1.08;;;;;;;;;;5150024;27;20075;-60
2021/11/17 11:59:16;;;;;;;1.58;1.33;;;;;;;;;;5138784;27;20022;-62
2021/11/17 12:02:09;;;;;;;2.47;1.27;;;;;;;;;;5149751;27;20110;-58
2021/11/17 12:05:02;;;;;;;2.10;1.40;;;;;;;;;;5146395;27;20536;-63
2021/11/17 12:07:51;;;;;;;2.75;1.42;;;;;;;;;;5136757;27;20167;-60
2021/11/17 12:10:38;;;;;;;2.03;1.00;;;;;;;;;;5149792;27;20106;-61
2021/11/17 12:13:25;;;;;;;1.75;1.50;;;;;;;;;;5147718;27;20179;-63
2021/11/17 12:16:22;;;;;;;1.35;1.25;;;;;;;;;;5146802;27;20023;-62
2021/11/17 12:19:28;;;;;;;3.20;1.13;;;;;;;;;;5147204;27;20101;-60
2021/11/17 12:22:16;;;;;;;2.10;1.30;;;;;;;;;;5140339;27;20076;-60
2021/11/17 12:25:21;;;;;;;2.78;1.60;;;;;;;;;;5144812;27;20118;-61
2021/11/17 12:28:11;;;;;;;2.95;1.20;;;;;;;;;;5134859;27;20087;-66
2021/11/17 12:31:05;;;;;;;3.47;1.30;;;;;;;;;;5145717;27;20031;-60
2021/11/17 12:34:08;;;;;;;2.38;1.65;;;;;;;;;;5147985;27;20050;-60
2021/11/17 12:36:58;;;;;;;2.67;1.40;;;;;;;;;;5149389;27;20030;-60
2021/11/17 12:39:49;;;;;;;1.83;1.20;;;;;;;;;;5148004;27;20019;-61
2021/11/17 12:42:38;;;;;;;3.05;1.20;;;;;;;;;;5149509;27;20021;-62
2021/11/17 12:45:27;;;;;;;2.15;1.55;;;;;;;;;;5137791;27;20056;-59
2021/11/17 12:48:21;;;;;;;2.78;1.88;;;;;;;;;;5148800;27;20038;-60
2021/11/17 12:51:09;;;;;;;3.22;1.30;;;;;;;;;;5147762;27;20039;-60
2021/11/17 12:54:03;;;;;;;1.73;1.20;;;;;;;;;;5149257;27;20053;-58
2021/11/17 12:56:51;;;;;;;4.78;2.03;;;;;;;;;;5146801;27;20584;-57
2021/11/17 12:59:39;;;;;;;3.40;1.50;;;;;;;;;;5151329;27;20023;-62
2021/11/17 13:02:27;;;;;;;2.05;1.30;;;;;;;;;;5138540;27;20205;-59
2021/11/17 13:05:19;;;;;;;2.20;1.27;;;;;;;;;;5151522;27;20050;-59
2021/11/17 13:08:04;;;;;;;2.05;1.02;;;;;;;;;;5152850;27;20117;-59
2021/11/17 13:11:04;;;;;;;3.08;1.35;;;;;;;;;;5151389;27;20646;-63
2021/11/17 13:13:55;;;;;;;1.08;0.98;;;;;;;;;;5152706;27;20049;-62
2021/11/17 13:16:43;;;;;;;1.38;1.20;;;;;;;;;;5144508;27;20607;-59
2021/11/17 13:19:32;;;;;;;2.92;1.50;;;;;;;;;;5138413;27;20038;-62
2021/11/17 13:22:35;;;;;;;2.05;1.38;;;;;;;;;;5151181;27;20054;-62
2021/11/17 13:25:28;;;;;;;2.65;1.20;;;;;;;;;;5140981;27;20422;-60
2021/11/17 13:28:32;;;;;;;3.92;1.55;;;;;;;;;;5151093;27;20106;-62
2021/11/17 13:31:22;;;;;;;1.88;1.42;;;;;;;;;;5150975;27;20026;-60
2021/11/17 13:34:12;;;;;;;2.00;1.33;;;;;;;;;;5152754;27;20051;-62
2021/11/17 13:37:14;;;;;;;2.70;1.48;;;;;;;;;;5150627;27;20472;-61
2021/11/17 13:40:01;;;;;;;2.67;1.33;;;;;;;;;;5152330;27;20022;-75
2021/11/17 13:42:47;;;;;;;2.08;1.52;;;;;;;;;;5149793;27;20046;-59
2021/11/17 13:45:32;;;;;;;2.20;1.63;;;;;;;;;;5149860;27;20018;-71
2021/11/17 13:48:19;;;;;;;2.38;1.25;;;;;;;;;;5136578;27;20106;-74
2021/11/17 13:51:05;;;;;;;3.33;1.30;;;;;;;;;;5152423;27;20034;-73
2021/11/17 13:53:50;;;;;;;1.58;1.30;;;;;;;;;;5151808;27;20064;-72
2021/11/17 13:56:37;;;;;;;1.98;1.40;;;;;;;;;;5145814;27;20037;-75
2021/11/17 13:59:22;;;;;;;1.88;1.40;;;;;;;;;;5140547;27;20050;-62
2021/11/17 14:02:08;;;;;;;3.58;1.63;;;;;;;;;;5150357;27;20065;-62
2021/11/17 14:04:53;;;;;;;2.90;1.80;;;;;;;;;;5158501;27;20501;-61
2021/11/17 14:07:39;;;;;;;2.08;1.73;;;;;;;;;;5136594;27;20066;-62
2021/11/17 14:10:24;;;;;;;4.78;1.95;;;;;;;;;;5151325;27;20484;-61
2021/11/17 14:13:10;;;;;;;3.88;1.50;;;;;;;;;;5149860;27;20037;-58
2021/11/17 14:15:55;;;;;;;3.13;1.73;;;;;;;;;;5151513;27;20041;-59
2021/11/17 14:18:41;;;;;;;2.47;1.80;;;;;;;;;;5150252;27;20018;-66
2021/11/17 14:21:26;;;;;;;3.88;2.38;;;;;;;;;;5136755;27;20346;-62
2021/11/17 14:24:13;;;;;;;3.05;1.95;;;;;;;;;;5147786;27;20133;-63
2021/11/17 14:26:58;;;;;;;3.17;2.08;;;;;;;;;;5151427;27;20035;-61
2021/11/17 14:29:49;;;;;;;4.78;2.40;;;;;;;;;;5149601;27;20026;-61
2021/11/17 14:32:36;;;;;;;5.70;2.80;;;;;;;;;;5151112;27;20042;-62
2021/11/17 14:35:25;;;;;;;3.50;2.13;;;;;;;;;;5150025;27;20086;-60
2021/11/17 14:38:16;;;;;;;4.55;2.33;;;;;;;;;;5151116;27;20038;-59
2021/11/17 14:41:02;;;;;;;5.45;2.35;;;;;;;;;;5143057;27;20027;-64
2021/11/17 14:43:48;;;;;;;2.72;2.00;;;;;;;;;;5149169;27;20030;-64
2021/11/17 14:46:34;;;;;;;5.20;2.50;;;;;;;;;;5151245;27;20042;-62
2021/11/17 14:49:19;;;;;;;3.88;2.20;;;;;;;;;;5149343;27;20077;-60
2021/11/17 14:52:07;;;;;;;6.85;2.40;;;;;;;;;;5151373;27;20400;-61
2021/11/17 14:54:53;;;;;;;5.35;3.00;;;;;;;;;;5149799;27;20035;-62
2021/11/17 14:57:38;;;;;;;5.85;2.80;;;;;;;;;;5151156;27;20019;-73
2021/11/17 15:00:25;;;;;;;4.40;2.20;;;;;;;;;;5149356;27;20388;-74
2021/11/17 15:03:11;;;;;;;4.18;2.65;;;;;;;;;;5150320;27;20042;-72
2021/11/17 15:05:56;;;;;;;4.68;2.53;;;;;;;;;;5138876;27;20029;-73
2021/11/17 15:08:42;;;;;;;4.78;2.80;;;;;;;;;;5136669;27;20076;-73
2021/11/17 15:11:27;;;;;;;3.78;2.40;;;;;;;;;;5135247;27;20102;-72
2021/11/17 15:14:13;;;;;;;3.92;2.70;;;;;;;;;;5151516;27;20010;-59
2021/11/17 15:16:58;;;;;;;4.22;2.70;;;;;;;;;;5149050;27;20034;-62
2021/11/17 15:19:44;;;;;;;4.82;2.60;;;;;;;;;;5141981;27;20022;-64
2021/11/17 15:22:29;;;;;;;5.22;2.95;;;;;;;;;;5142706;27;20473;-62
2021/11/17 15:25:20;;;;;;;5.50;3.03;;;;;;;;;;5136804;27;20083;-63
2021/11/17 15:28:22;;;;;;;4.45;2.90;;;;;;;;;;5150476;27;20101;-64
2021/11/17 15:31:10;;;;;;;5.30;2.97;;;;;;;;;;5148692;27;20031;-59
2021/11/17 15:33:55;;;;;;;4.68;2.80;;;;;;;;;;5136117;27;20167;-74
2021/11/17 15:36:41;;;;;;;4.78;2.60;;;;;;;;;;5149180;27;20373;-76
2021/11/17 15:39:26;;;;;;;5.05;2.50;;;;;;;;;;5150307;27;20030;-74
2021/11/17 15:42:12;;;;;;;5.25;2.85;;;;;;;;;;5133852;27;20074;-74
2021/11/17 15:44:57;;;;;;;7.82;2.88;;;;;;;;;;5150166;27;20410;-75
2021/11/17 15:47:42;;;;;;;6.00;3.30;;;;;;;;;;5148736;27;20022;-75
2021/11/17 15:50:32;;;;;;;5.97;2.72;;;;;;;;;;5150004;27;20031;-62
2021/11/17 15:53:17;;;;;;;;;;;;;;;;;;5149335;27;20025;-61
2021/11/17 15:56:03;;;;;;;4.72;2.78;;;;;;;;;;5149849;27;20438;-62
2021/11/17 15:58:49;;;;;;;4.95;3.13;;;;;;;;;;5148703;27;20023;-62
2021/11/17 16:01:34;;;;;;;4.50;2.50;;;;;;;;;;5147676;27;20023;-61
2021/11/17 16:04:20;;;;;;;4.07;2.75;;;;;;;;;;5137374;27;20481;-61
2021/11/17 16:07:07;;;;;;;4.60;2.90;;;;;;;;;;5148881;27;20035;-61
2021/11/17 16:09:55;;;;;;;6.07;3.35;;;;;;;;;;5149856;27;20033;-60
2021/11/17 16:12:41;;;;;;;4.90;3.00;;;;;;;;;;5142956;27;20485;-61
2021/11/17 16:15:28;;;;;;;5.05;2.55;;;;;;;;;;5149793;27;20042;-64
2021/11/17 16:18:13;;;;;;;6.20;3.45;;;;;;;;;;5148289;27;20597;-62
2021/11/17 16:21:00;;;;;;;9.77;3.80;;;;;;;;;;5134505;27;20038;-62
2021/11/17 16:26:33;;;;;;;10.55;5.22;;;;;;;;;;5150123;27;20072;-59
2021/11/17 16:29:18;;;;;;;7.75;4.53;;;;;;;;;;5148688;27;20035;-62
2021/11/17 16:32:03;;;;;;;35.67;25.45;;;;;;;;;;5140824;27;20505;-60
2021/11/17 16:34:50;;;;;;;10.65;6.90;;;;;;;;;;5153174;27;20366;-63
2021/11/17 16:37:35;;;;;;;7.82;4.20;;;;;;;;;;5154054;27;20033;-61
2021/11/17 16:40:23;;;;;;;6.20;3.28;;;;;;;;;;5153849;27;20030;-61
2021/11/17 16:43:08;;;;;;;6.35;4.07;;;;;;;;;;5152312;27;20021;-61
2021/11/17 16:45:54;;;;;;;6.78;4.00;;;;;;;;;;5153659;27;20036;-63
2021/11/17 16:48:39;;;;;;;5.25;3.50;;;;;;;;;;5152247;27;20071;-68
2021/11/17 16:51:24;;;;;;;5.85;3.30;;;;;;;;;;5153832;27;20098;-68
2021/11/17 16:54:10;;;;;;;5.15;2.95;;;;;;;;;;5140263;27;20023;-70
2021/11/17 16:56:55;;;;;;;6.97;3.33;;;;;;;;;;5154277;27;20030;-67
2021/11/17 16:59:41;;;;;;;9.25;3.40;;;;;;;;;;5153014;27;20463;-68
2021/11/17 17:02:26;;;;;;;4.68;2.97;;;;;;;;;;5144294;27;20358;-70
2021/11/17 17:05:12;;;;;;;6.90;2.85;;;;;;;;;;5152318;27;20030;-61
2021/11/17 17:07:57;;;;;;;5.32;3.15;;;;;;;;;;5154067;27;20060;-60
2021/11/17 17:10:43;;;;;;;4.93;3.25;;;;;;;;;;5151760;27;20022;-59
2021/11/17 17:13:29;;;;;;;4.93;2.90;;;;;;;;;;5153063;27;20500;-63
2021/11/17 17:16:14;;;;;;;8.45;3.20;;;;;;;;;;5135781;27;20075;-63
2021/11/17 17:18:59;;;;;;;5.03;2.80;;;;;;;;;;5153866;27;20080;-62
2021/11/17 17:21:45;;;;;;;7.63;3.42;;;;;;;;;;5139864;27;20023;-61
2021/11/17 17:24:30;;;;;;;6.15;3.28;;;;;;;;;;5153375;27;20023;-71
2021/11/17 17:27:15;;;;;;;5.00;2.90;;;;;;;;;;5150563;27;20037;-72
2021/11/17 17:30:01;;;;;;;5.30;3.28;;;;;;;;;;5151380;27;20030;-71
2021/11/17 17:32:47;;;;;;;5.40;3.10;;;;;;;;;;5152416;27;20034;-74
2021/11/17 17:35:32;;;;;;;5.97;2.85;;;;;;;;;;5151135;27;20030;-72
2021/11/17 17:38:18;;;;;;;5.80;3.38;;;;;;;;;;5151984;27;20011;-72
2021/11/17 17:41:04;;;;;;;13.57;7.88;;;;;;;;;;5150285;27;20040;-58
2021/11/17 17:43:50;;;;;;;15.80;9.13;;;;;;;;;;5139128;27;20038;-60
2021/11/17 17:46:35;;;;;;;6.00;3.42;;;;;;;;;;5125528;27;20055;-62
2021/11/17 17:49:21;;;;;;;8.65;4.38;;;;;;;;;;5151593;27;20039;-61
2021/11/17 17:52:07;;;;;;;8.55;3.25;;;;;;;;;;5130397;27;20032;-62
2021/11/17 17:54:54;;;;;;;6.25;3.33;;;;;;;;;;5151941;27;20050;-63
2021/11/17 17:57:39;;;;;;;7.85;3.55;;;;;;;;;;5146091;27;20091;-61
2021/11/17 18:00:25;;;;;;;7.90;3.58;;;;;;;;;;5151856;27;20034;-63
2021/11/17 18:03:12;;;;;;;5.13;2.83;;;;;;;;;;5149772;27;20026;-61
2021/11/17 18:05:58;;;;;;;4.93;3.03;;;;;;;;;;5151745;27;20030;-60
2021/11/17 18:08:43;;;;;;;5.40;3.10;;;;;;;;;;5151191;27;20027;-59
2021/11/17 18:11:28;;;;;;;8.52;3.00;;;;;;;;;;5136995;27;20027;-60
2021/11/17 18:14:14;;;;;;;3.95;2.65;;;;;;;;;;5150621;27;20447;-60
2021/11/17 18:16:59;;;;;;;9.30;3.30;;;;;;;;;;5134980;27;20492;-63
2021/11/17 18:19:44;;;;;;;6.28;3.10;;;;;;;;;;5147064;27;20446;-59
2021/11/17 18:22:30;;;;;;;7.97;3.63;;;;;;;;;;5144637;27;20083;-60
2021/11/17 18:25:17;;;;;;;6.97;3.58;;;;;;;;;;5139504;27;20022;-61
2021/11/17 18:28:03;;;;;;;6.45;3.03;;;;;;;;;;5150153;27;20027;-61
2021/11/17 18:30:48;;;;;;;5.57;2.95;;;;;;;;;;5151711;27;20381;-59
2021/11/17 18:33:34;;;;;;;7.00;3.28;;;;;;;;;;5149787;27;20046;-60
2021/11/17 18:36:20;;;;;;;6.78;3.45;;;;;;;;;;5151445;27;20477;-70
2021/11/17 18:39:06;;;;;;;5.43;3.08;;;;;;;;;;5150123;27;20031;-66
2021/11/17 18:41:57;;;;;;;5.60;3.40;;;;;;;;;;5150209;27;20110;-67
2021/11/17 18:44:43;;;;;;;8.63;3.60;;;;;;;;;;5149503;27;20090;-71
2021/11/17 18:47:28;;;;;;;9.93;3.95;;;;;;;;;;5150698;27;20027;-65
2021/11/17 18:50:16;;;;;;;9.98;4.15;;;;;;;;;;5149207;27;20049;-66
2021/11/17 18:53:02;;;;;;;5.90;3.22;;;;;;;;;;5151738;27;20055;-62
2021/11/17 18:55:48;;;;;;;6.35;3.42;;;;;;;;;;5151649;27;20018;-60
2021/11/17 18:58:33;;;;;;;5.80;3.10;;;;;;;;;;5150412;27;20033;-62
2021/11/17 19:01:20;;;;;;;10.43;5.20;;;;;;;;;;5141961;27;20043;-62
2021/11/17 19:04:05;;;;;;;9.48;4.82;;;;;;;;;;5150335;27;20033;-63
2021/11/17 19:06:51;;;;;;;6.68;3.88;;;;;;;;;;5151655;27;20479;-64
2021/11/17 19:09:37;;;;;;;9.38;3.58;;;;;;;;;;5150390;27;20068;-63
2021/11/17 19:12:22;;;;;;;6.95;3.80;;;;;;;;;;5151261;27;20106;-62
2021/11/17 19:15:07;;;;;;;6.60;3.35;;;;;;;;;;5149595;27;20038;-63
2021/11/17 19:17:53;;;;;;;6.13;3.42;;;;;;;;;;5137816;27;20022;-64
2021/11/17 19:20:40;;;;;;;5.95;3.50;;;;;;;;;;5128953;27;20023;-66
2021/11/17 19:23:25;;;;;;;5.00;3.40;;;;;;;;;;5135240;27;20015;-63
2021/11/17 19:26:10;;;;;;;5.95;3.58;;;;;;;;;;5150272;27;20027;-66